createdAt,value
2019-02-25T00:02:31.594Z,102976.63
2019-02-25T00:05:03.422Z,102979.99
2019-02-25T00:07:35.323Z,102974.11
2019-02-25T00:10:08.231Z,102982.34
2019-02-25T00:12:40.046Z,102974.38
2019-02-25T00:15:11.948Z,102987.16
2019-02-25T00:17:43.841Z,102992.16
2019-02-25T00:20:15.630Z,102994.91
2019-02-25T00:22:47.477Z,102986.03
2019-02-25T00:25:19.282Z,102981.94
2019-02-25T00:27:51.120Z,102984.77
2019-02-25T00:30:23.549Z,102975.32
2019-02-25T00:32:55.440Z,102975.81
2019-02-25T00:35:27.212Z,102974.83
2019-02-25T00:37:59.032Z,102970.27
2019-02-25T00:40:30.850Z,102964.06
2019-02-25T00:43:02.672Z,102965.28
2019-02-25T00:45:34.450Z,102965.59
2019-02-25T00:48:06.264Z,102960.47
2019-02-25T00:50:38.109Z,102956.06
2019-02-25T00:53:09.951Z,102956.24
2019-02-25T00:55:42.816Z,102952.96
2019-02-25T00:58:15.770Z,102959.74
2019-02-25T01:00:47.600Z,102953.94
2019-02-25T01:03:19.433Z,102955.06
2019-02-25T01:05:51.369Z,102957.27
2019-02-25T01:08:23.161Z,102953.45
2019-02-25T01:10:55.010Z,102947.91
2019-02-25T01:13:26.810Z,102953.36
2019-02-25T01:15:58.708Z,102945.88
2019-02-25T01:18:30.609Z,102948.63
2019-02-25T01:21:02.422Z,102943.77
2019-02-25T01:23:34.244Z,102948.53
2019-02-25T01:26:06.085Z,102942.36
2019-02-25T01:28:37.884Z,102949.42
2019-02-25T01:31:10.898Z,102947.47
2019-02-25T01:33:42.751Z,102952.10
2019-02-25T01:36:14.599Z,102942.15
2019-02-25T01:38:46.411Z,102933.25
2019-02-25T01:41:18.240Z,102932.84
2019-02-25T01:43:50.061Z,102934.42
2019-02-25T01:46:22.101Z,102932.23
2019-02-25T01:48:56.831Z,102924.55
2019-02-25T01:51:28.682Z,102932.96
2019-02-25T01:54:00.543Z,102929.22
2019-02-25T01:56:32.481Z,102930.12
2019-02-25T01:59:05.524Z,102931.44
2019-02-25T02:01:40.400Z,102932.56
2019-02-25T02:04:12.323Z,102932.14
2019-02-25T02:06:44.127Z,102925.79
2019-02-25T02:09:16.150Z,102924.89
2019-02-25T02:11:49.007Z,102927.09
2019-02-25T02:14:20.903Z,102927.15
2019-02-25T02:16:52.874Z,102928.22
2019-02-25T02:19:26.399Z,102923.39
2019-02-25T02:21:58.275Z,102922.30
2019-02-25T02:24:30.445Z,102925.16
2019-02-25T02:27:02.366Z,102922.78
2019-02-25T02:29:35.676Z,102916.76
2019-02-25T02:32:07.533Z,102927.77
2019-02-25T02:34:39.504Z,102932.39
2019-02-25T02:37:13.187Z,102927.41
2019-02-25T02:39:45.340Z,102928.06
2019-02-25T02:42:22.503Z,102925.58
2019-02-25T02:45:03.677Z,102923.88
2019-02-25T02:48:19.515Z,102922.56
2019-02-25T02:50:52.614Z,102924.13
2019-02-25T02:53:24.643Z,102918.63
2019-02-25T02:55:57.694Z,102912.64
2019-02-25T02:58:29.813Z,102918.69
2019-02-25T03:01:01.719Z,102913.75
2019-02-25T03:03:33.713Z,102910.02
2019-02-25T03:06:06.715Z,102911.41
2019-02-25T03:08:42.929Z,102911.37
2019-02-25T03:11:19.448Z,102909.13
2019-02-25T03:13:53.163Z,102901.52
2019-02-25T03:16:25.435Z,102893.39
2019-02-25T03:18:58.960Z,102907.48
2019-02-25T03:21:31.087Z,102911.34
2019-02-25T03:24:06.804Z,102914.15
2019-02-25T03:26:38.988Z,102918.44
2019-02-25T03:29:17.200Z,102929.67
2019-02-25T03:31:49.141Z,102926.45
2019-02-25T03:34:21.188Z,102927.50
2019-02-25T03:36:58.141Z,102917.39
2019-02-25T03:39:30.308Z,102909.86
2019-02-25T03:42:04.520Z,102915.53
2019-02-25T03:44:36.508Z,102914.66
2019-02-25T03:47:10.744Z,102919.03
2019-02-25T03:49:42.498Z,102914.39
2019-02-25T03:52:16.424Z,102916.09
2019-02-25T03:54:48.388Z,102908.77
2019-02-25T03:57:20.639Z,102895.46
2019-02-25T03:59:52.801Z,102890.09
2019-02-25T04:02:24.782Z,102882.07
2019-02-25T04:04:59.333Z,102881.15
2019-02-25T04:07:35.783Z,102878.73
2019-02-25T04:10:13.969Z,102881.80
2019-02-25T04:12:46.195Z,102876.98
2019-02-25T04:15:23.504Z,102877.95
2019-02-25T04:17:55.663Z,102882.17
2019-02-25T04:20:29.125Z,102872.91
2019-02-25T04:23:04.252Z,102869.99
2019-02-25T04:25:38.942Z,102863.13
2019-02-25T04:28:10.820Z,102867.63
2019-02-25T04:30:45.156Z,102868.62
2019-02-25T04:33:20.958Z,102877.88
2019-02-25T04:35:56.463Z,102879.35
2019-02-25T04:38:36.590Z,102875.23
2019-02-25T04:41:11.525Z,102876.39
2019-02-25T04:43:43.555Z,102874.77
2019-02-25T04:46:15.631Z,102883.66
2019-02-25T04:48:53.808Z,102883.02
2019-02-25T04:51:30.254Z,102876.89
2019-02-25T04:54:02.313Z,102880.52
2019-02-25T04:56:40.684Z,102880.36
2019-02-25T04:59:12.750Z,102878.81
2019-02-25T05:01:44.587Z,102869.91
2019-02-25T05:04:16.400Z,102866.41
2019-02-25T05:06:51.960Z,102871.80
2019-02-25T05:09:24.003Z,102875.06
2019-02-25T05:11:55.975Z,102876.92
2019-02-25T05:14:30.165Z,102876.37
2019-02-25T05:17:02.410Z,102878.88
2019-02-25T05:19:38.208Z,102887.19
2019-02-25T05:22:10.418Z,102889.70
2019-02-25T05:24:42.537Z,102891.59
2019-02-25T05:27:16.767Z,102895.03
2019-02-25T05:29:53.952Z,102890.97
2019-02-25T05:32:26.232Z,102904.50
2019-02-25T05:34:58.218Z,102904.12
2019-02-25T05:37:32.369Z,102907.78
2019-02-25T05:40:12.483Z,102910.47
2019-02-25T05:42:52.439Z,102908.02
2019-02-25T05:45:32.266Z,102905.02
2019-02-25T05:48:07.338Z,102919.59
2019-02-25T05:50:42.154Z,102916.80
2019-02-25T05:53:18.546Z,102922.10
2019-02-25T05:55:53.675Z,102925.20
2019-02-25T05:58:35.326Z,102925.41
2019-02-25T06:01:11.331Z,102919.70
2019-02-25T06:03:45.133Z,102921.41
2019-02-25T06:06:18.298Z,102922.22
2019-02-25T06:08:54.790Z,102913.34
2019-02-25T06:11:28.379Z,102914.74
2019-02-25T06:14:09.020Z,102915.24
2019-02-25T06:16:42.636Z,102906.32
2019-02-25T06:19:20.483Z,102914.76
2019-02-25T06:21:56.505Z,102908.09
2019-02-25T06:24:32.284Z,102919.38
2019-02-25T06:27:07.606Z,102927.34
2019-02-25T06:29:50.014Z,102926.14
2019-02-25T06:32:32.878Z,102922.53
2019-02-25T06:35:12.195Z,102927.59
2019-02-25T06:37:44.130Z,102925.31
2019-02-25T06:40:20.575Z,102917.98
2019-02-25T06:42:52.575Z,102914.48
2019-02-25T06:45:28.309Z,102919.22
2019-02-25T06:48:02.130Z,102915.18
2019-02-25T06:50:38.410Z,102915.91
2019-02-25T06:53:10.398Z,102905.89
2019-02-25T06:55:42.386Z,102908.59
2019-02-25T06:58:20.289Z,102915.48
2019-02-25T07:00:53.861Z,102917.02
2019-02-25T07:03:25.809Z,102909.51
2019-02-25T07:06:07.697Z,102913.42
2019-02-25T07:08:52.497Z,102913.36
2019-02-25T07:11:36.351Z,102921.91
2019-02-25T07:14:27.475Z,102918.31
2019-02-25T07:17:17.016Z,102922.17
2019-02-25T07:20:17.066Z,102911.31
2019-02-25T07:23:13.903Z,102910.12
2019-02-25T07:26:06.880Z,102911.20
2019-02-25T07:28:56.237Z,102924.06
2019-02-25T07:31:43.244Z,102926.66
2019-02-25T07:34:21.318Z,102924.38
2019-02-25T07:37:17.951Z,102930.72
2019-02-25T07:40:15.245Z,102935.68
2019-02-25T07:43:09.107Z,102942.43
2019-02-25T07:45:59.781Z,102939.70
2019-02-25T07:48:38.142Z,102946.41
2019-02-25T07:51:31.749Z,102945.77
2019-02-25T07:54:25.217Z,102949.00
2019-02-25T07:57:18.990Z,102942.42
2019-02-25T08:00:11.293Z,102943.10
2019-02-25T08:02:58.224Z,102941.27
2019-02-25T08:05:51.379Z,102945.34
2019-02-25T08:08:33.229Z,102946.52
2019-02-25T08:11:32.909Z,102947.38
2019-02-25T08:14:26.568Z,102959.09
2019-02-25T08:17:20.010Z,102953.38
2019-02-25T08:20:08.677Z,102955.19
2019-02-25T08:22:58.759Z,102950.92
2019-02-25T08:26:02.000Z,102951.83
2019-02-25T08:28:50.457Z,102958.89
2019-02-25T08:31:47.402Z,102954.39
2019-02-25T08:34:34.738Z,102952.55
2019-02-25T08:38:15.557Z,102951.75
2019-02-25T08:41:21.143Z,102948.42
2019-02-25T08:44:10.449Z,102949.23
2019-02-25T08:47:01.182Z,102951.89
2019-02-25T08:49:45.875Z,102951.92
2019-02-25T08:52:17.749Z,102955.91
2019-02-25T08:54:49.672Z,102944.67
2019-02-25T08:57:22.739Z,102944.84
2019-02-25T08:59:55.668Z,102942.80
2019-02-25T09:02:27.551Z,102945.55
2019-02-25T09:04:59.431Z,102943.72
2019-02-25T09:07:31.435Z,102940.27
2019-02-25T09:10:03.324Z,102937.30
2019-02-25T09:12:35.272Z,102936.08
2019-02-25T09:15:08.760Z,102934.03
2019-02-25T09:17:44.608Z,102941.06
2019-02-25T09:20:17.075Z,102936.31
2019-02-25T09:22:48.964Z,102940.40
2019-02-25T09:25:23.450Z,102943.27
2019-02-25T09:27:55.327Z,102938.06
2019-02-25T09:30:27.229Z,102935.16
2019-02-25T09:32:59.144Z,102935.23
2019-02-25T09:35:31.192Z,102939.27
2019-02-25T09:38:03.104Z,102933.67
2019-02-25T09:40:35.061Z,102934.27
2019-02-25T09:43:06.933Z,102928.31
2019-02-25T09:45:38.980Z,102938.31
2019-02-25T09:48:10.844Z,102924.92
2019-02-25T09:50:42.754Z,102930.83
2019-02-25T09:53:14.597Z,102932.86
2019-02-25T09:55:46.468Z,102927.65
2019-02-25T09:58:18.355Z,102934.14
2019-02-25T10:00:50.264Z,102926.71
2019-02-25T10:03:22.165Z,102933.92
2019-02-25T10:05:54.139Z,102942.35
2019-02-25T10:08:26.044Z,102931.94
2019-02-25T10:10:57.950Z,102931.27
2019-02-25T10:13:29.844Z,102928.77
2019-02-25T10:16:01.695Z,102929.24
2019-02-25T10:18:33.495Z,102930.95
2019-02-25T10:21:05.388Z,102919.97
2019-02-25T10:23:37.451Z,102914.86
2019-02-25T10:26:09.405Z,102906.09
2019-02-25T10:28:41.304Z,102904.34
2019-02-25T10:31:15.209Z,102911.23
2019-02-25T10:33:46.728Z,102911.41
2019-02-25T10:36:18.543Z,102905.93
2019-02-25T10:38:50.332Z,102893.22
2019-02-25T10:41:23.417Z,102893.73
2019-02-25T10:43:55.764Z,102889.03
2019-02-25T10:46:28.598Z,102890.94
2019-02-25T10:49:10.950Z,102887.19
2019-02-25T10:51:35.142Z,102891.30
2019-02-25T10:54:07.855Z,102876.01
2019-02-25T10:56:58.985Z,102859.29
2019-02-25T10:59:32.228Z,102852.95
2019-02-25T11:02:04.939Z,102856.72
2019-02-25T11:04:36.899Z,102851.13
2019-02-25T11:07:09.643Z,102855.62
2019-02-25T11:09:55.386Z,102855.09
2019-02-25T11:12:27.962Z,102848.12
2019-02-25T11:15:00.875Z,102843.72
2019-02-25T11:17:33.223Z,102841.10
2019-02-25T11:20:07.795Z,102838.76
2019-02-25T11:22:41.578Z,102829.38
2019-02-25T11:25:14.047Z,102820.97
2019-02-25T11:27:46.076Z,102821.78
2019-02-25T11:30:19.345Z,102818.73
2019-02-25T11:32:53.423Z,102812.44
2019-02-25T11:35:26.226Z,102816.46
2019-02-25T11:37:59.770Z,102832.98
2019-02-25T11:40:33.618Z,102840.95
2019-02-25T11:43:05.316Z,102840.09
2019-02-25T11:45:37.578Z,102830.36
2019-02-25T11:48:09.465Z,102829.20
2019-02-25T11:50:41.415Z,102813.79
2019-02-25T11:53:13.253Z,102798.33
2019-02-25T11:55:45.219Z,102790.51
2019-02-25T11:58:17.070Z,102784.92
2019-02-25T12:00:50.028Z,102777.54
2019-02-25T12:03:21.838Z,102776.59
2019-02-25T12:05:53.690Z,102777.28
2019-02-25T12:08:25.523Z,102769.37
2019-02-25T12:10:57.523Z,102762.39
2019-02-25T12:13:30.431Z,102761.01
2019-02-25T12:16:02.274Z,102749.47
2019-02-25T12:18:35.221Z,102740.70
2019-02-25T12:21:07.250Z,102744.31
2019-02-25T12:23:39.148Z,102743.53
2019-02-25T12:26:10.981Z,102741.77
2019-02-25T12:28:42.864Z,102751.19
2019-02-25T12:31:14.723Z,102750.75
2019-02-25T12:33:46.609Z,102741.38
2019-02-25T12:36:18.533Z,102742.66
2019-02-25T12:38:50.544Z,102742.23
2019-02-25T12:41:22.426Z,102734.12
2019-02-25T12:43:54.391Z,102730.97
2019-02-25T12:46:26.241Z,102725.20
2019-02-25T12:48:58.183Z,102723.55
2019-02-25T12:51:30.051Z,102716.55
2019-02-25T12:54:01.975Z,102707.28
2019-02-25T12:56:33.987Z,102697.54
2019-02-25T12:59:05.945Z,102693.17
2019-02-25T13:01:37.850Z,102695.37
2019-02-25T13:04:09.854Z,102688.80
2019-02-25T13:06:41.760Z,102682.95
2019-02-25T13:09:15.528Z,102675.85
2019-02-25T13:11:47.387Z,102674.47
2019-02-25T13:14:19.266Z,102673.17
2019-02-25T13:16:51.224Z,102667.92
2019-02-25T13:19:23.134Z,102670.20
2019-02-25T13:21:56.222Z,102656.07
2019-02-25T13:24:28.802Z,102664.84
2019-02-25T13:27:03.183Z,102651.62
2019-02-25T13:29:35.281Z,102652.59
2019-02-25T13:32:07.117Z,102658.86
2019-02-25T13:34:39.050Z,102650.42
2019-02-25T13:37:11.139Z,102639.38
2019-02-25T13:39:43.035Z,102629.22
2019-02-25T13:42:15.026Z,102623.92
2019-02-25T13:44:46.894Z,102621.71
2019-02-25T13:47:18.915Z,102623.53
2019-02-25T13:49:51.111Z,102625.26
2019-02-25T13:52:23.031Z,102624.38
2019-02-25T13:54:54.903Z,102627.98
2019-02-25T13:57:26.726Z,102628.86
2019-02-25T13:59:59.579Z,102625.77
2019-02-25T14:02:31.710Z,102623.97
2019-02-25T14:05:03.679Z,102635.45
2019-02-25T14:07:35.856Z,102629.74
2019-02-25T14:10:10.726Z,102631.45
2019-02-25T14:12:42.795Z,102637.20
2019-02-25T14:15:17.012Z,102639.02
2019-02-25T14:17:48.937Z,102627.05
2019-02-25T14:20:21.251Z,102636.76
2019-02-25T14:22:53.240Z,102625.26
2019-02-25T14:25:27.282Z,102630.13
2019-02-25T14:27:59.494Z,102628.36
2019-02-25T14:30:33.601Z,102633.63
2019-02-25T14:33:07.973Z,102638.51
2019-02-25T14:35:39.884Z,102633.17
2019-02-25T14:38:15.240Z,102633.18
2019-02-25T14:40:46.728Z,102632.32
2019-02-25T14:43:20.651Z,102626.11
2019-02-25T14:45:56.274Z,102629.14
2019-02-25T14:48:27.874Z,102622.48
2019-02-25T14:51:01.011Z,102615.35
2019-02-25T14:53:32.959Z,102624.22
2019-02-25T14:56:05.274Z,102618.08
2019-02-25T14:58:37.863Z,102618.59
2019-02-25T15:01:11.055Z,102615.06
2019-02-25T15:03:43.108Z,102608.45
2019-02-25T15:06:15.099Z,102601.77
2019-02-25T15:08:47.126Z,102596.47
2019-02-25T15:11:19.298Z,102588.94
2019-02-25T15:13:51.344Z,102594.68
2019-02-25T15:16:23.727Z,102592.47
2019-02-25T15:18:58.633Z,102591.59
2019-02-25T15:21:33.781Z,102587.62
2019-02-25T15:24:06.857Z,102584.07
2019-02-25T15:26:42.803Z,102572.98
2019-02-25T15:29:16.262Z,102569.00
2019-02-25T15:31:50.467Z,102564.14
2019-02-25T15:34:28.559Z,102560.53
2019-02-25T15:37:24.354Z,102560.94
2019-02-25T15:39:56.448Z,102557.88
2019-02-25T15:42:30.102Z,102560.98
2019-02-25T15:45:02.211Z,102564.51
2019-02-25T15:47:34.396Z,102568.50
2019-02-25T15:50:08.076Z,102568.05
2019-02-25T15:52:41.789Z,102568.08
2019-02-25T15:55:17.392Z,102566.70
2019-02-25T15:57:53.307Z,102565.83
2019-02-25T16:00:27.497Z,102557.86
2019-02-25T16:02:59.384Z,102568.85
2019-02-25T16:05:34.331Z,102574.16
2019-02-25T16:08:09.966Z,102579.90
2019-02-25T16:10:41.815Z,102587.45
2019-02-25T16:13:14.392Z,102582.52
2019-02-25T16:15:46.384Z,102585.97
2019-02-25T16:18:19.074Z,102587.54
2019-02-25T16:20:50.997Z,102588.88
2019-02-25T16:23:25.754Z,102579.52
2019-02-25T16:25:57.589Z,102579.81
2019-02-25T16:28:31.226Z,102586.80
2019-02-25T16:31:05.663Z,102585.69
2019-02-25T16:33:37.583Z,102582.75
2019-02-25T16:36:10.029Z,102587.91
2019-02-25T16:38:41.965Z,102587.69
2019-02-25T16:41:16.006Z,102592.45
2019-02-25T16:43:48.376Z,102584.99
2019-02-25T16:46:24.426Z,102588.40
2019-02-25T16:48:57.442Z,102593.97
2019-02-25T16:51:30.593Z,102593.73
2019-02-25T16:54:11.063Z,102593.68
2019-02-25T16:56:44.459Z,102594.84
2019-02-25T16:59:20.374Z,102598.00
2019-02-25T17:01:56.002Z,102599.56
2019-02-25T17:04:31.711Z,102600.83
2019-02-25T17:07:04.746Z,102599.33
2019-02-25T17:09:38.697Z,102601.43
2019-02-25T17:12:12.670Z,102601.22
2019-02-25T17:14:46.963Z,102599.77
2019-02-25T17:17:22.803Z,102597.03
2019-02-25T17:19:55.213Z,102593.28
2019-02-25T17:22:27.292Z,102595.23
2019-02-25T17:25:02.861Z,102597.80
2019-02-25T17:27:40.158Z,102600.44
2019-02-25T17:30:19.616Z,102596.77
2019-02-25T17:32:51.707Z,102602.38
2019-02-25T17:35:26.646Z,102605.23
2019-02-25T17:38:03.018Z,102606.13
2019-02-25T17:40:35.034Z,102609.30
2019-02-25T17:43:09.106Z,102590.89
2019-02-25T17:45:43.846Z,102592.11
2019-02-25T17:48:18.567Z,102603.91
2019-02-25T17:50:50.612Z,102604.38
2019-02-25T17:53:24.107Z,102603.88
2019-02-25T17:55:57.689Z,102598.99
2019-02-25T17:58:30.543Z,102601.70
2019-02-25T18:01:03.283Z,102604.84
2019-02-25T18:03:39.548Z,102608.48
2019-02-25T18:06:12.284Z,102605.84
2019-02-25T18:08:44.404Z,102602.77
2019-02-25T18:11:18.382Z,102604.02
2019-02-25T18:13:51.325Z,102609.73
2019-02-25T18:16:25.928Z,102607.98
2019-02-25T18:18:58.142Z,102614.66
2019-02-25T18:21:34.021Z,102609.73
2019-02-25T18:24:06.376Z,102616.44
2019-02-25T18:26:38.422Z,102619.43
2019-02-25T18:29:15.571Z,102612.83
2019-02-25T18:31:45.318Z,102608.66
2019-02-25T18:34:17.596Z,102612.39
2019-02-25T18:36:51.595Z,102613.09
2019-02-25T18:39:25.284Z,102614.84
2019-02-25T18:41:58.065Z,102620.51
2019-02-25T18:44:30.487Z,102607.74
2019-02-25T18:47:02.662Z,102607.44
2019-02-25T18:49:37.103Z,102610.09
2019-02-25T18:52:09.656Z,102602.38
2019-02-25T18:54:45.324Z,102605.77
2019-02-25T18:57:18.922Z,102601.31
2019-02-25T18:59:51.758Z,102609.56
2019-02-25T19:02:24.251Z,102603.73
2019-02-25T19:04:58.229Z,102606.23
2019-02-25T19:07:31.454Z,102603.94
2019-02-25T19:10:03.980Z,102601.64
2019-02-25T19:12:36.006Z,102606.18
2019-02-25T19:15:08.590Z,102600.22
2019-02-25T19:17:41.293Z,102596.51
2019-02-25T19:20:13.529Z,102599.98
2019-02-25T19:22:46.443Z,102597.64
2019-02-25T19:25:20.877Z,102589.73
2019-02-25T19:27:54.452Z,102585.31
2019-02-25T19:30:29.388Z,102594.27
2019-02-25T19:33:09.284Z,102587.87
2019-02-25T19:35:38.007Z,102584.19
2019-02-25T19:38:13.409Z,102590.56
2019-02-25T19:40:51.252Z,102583.67
2019-02-25T19:43:21.933Z,102588.13
2019-02-25T19:45:53.889Z,102435.88
2019-02-25T19:48:28.862Z,102597.19
2019-02-25T19:51:01.467Z,102590.67
2019-02-25T19:53:36.038Z,102589.56
2019-02-25T19:56:08.116Z,102594.88
2019-02-25T19:58:41.120Z,102594.30
2019-02-25T20:01:14.791Z,102606.34
2019-02-25T20:03:50.304Z,102605.81
2019-02-25T20:06:25.682Z,102602.66
2019-02-25T20:08:58.697Z,102596.83
2019-02-25T20:11:34.779Z,102591.45
2019-02-25T20:14:07.020Z,102590.41
2019-02-25T20:16:42.139Z,102588.16
2019-02-25T20:19:13.395Z,102587.61
2019-02-25T20:21:46.529Z,102575.21
2019-02-25T20:24:21.748Z,102582.93
2019-02-25T20:26:57.726Z,102582.87
2019-02-25T20:29:28.005Z,102589.41
2019-02-25T20:32:00.213Z,102588.20
2019-02-25T20:34:34.771Z,102586.56
2019-02-25T20:37:07.529Z,102586.73
2019-02-25T20:39:41.116Z,102594.50
2019-02-25T20:42:17.314Z,102590.20
2019-02-25T20:44:49.156Z,102591.98
2019-02-25T20:47:21.544Z,102594.73
2019-02-25T20:49:55.676Z,102589.03
2019-02-25T20:52:28.587Z,102588.34
2019-02-25T20:55:03.195Z,102590.15
2019-02-25T20:57:38.613Z,102596.02
2019-02-25T21:00:20.057Z,102586.00
2019-02-25T21:02:55.663Z,102574.59
2019-02-25T21:05:27.675Z,102574.58
2019-02-25T21:08:03.251Z,102563.47
2019-02-25T21:10:41.794Z,102564.11
2019-02-25T21:14:35.695Z,102552.66
2019-02-25T21:17:09.599Z,102551.06
2019-02-25T21:19:42.466Z,102554.27
2019-02-25T21:22:15.469Z,102553.43
2019-02-25T21:24:51.820Z,102552.37
2019-02-25T21:27:26.057Z,102553.33
2019-02-25T21:29:56.906Z,102549.55
2019-02-25T21:32:28.842Z,102543.91
2019-02-25T21:35:02.579Z,102548.06
2019-02-25T21:37:34.634Z,102540.55
2019-02-25T21:40:09.019Z,102529.41
2019-02-25T21:42:43.674Z,102509.95
2019-02-25T21:45:20.006Z,102502.96
2019-02-25T21:47:52.324Z,102505.96
2019-02-25T21:50:26.314Z,102508.48
2019-02-25T21:52:57.474Z,102512.42
2019-02-25T21:55:30.973Z,102521.62
2019-02-25T21:58:04.858Z,102511.58
2019-02-25T22:00:40.224Z,102511.83
2019-02-25T22:03:12.304Z,102525.61
2019-02-25T22:05:43.832Z,102522.25
2019-02-25T22:08:15.822Z,102514.00
2019-02-25T22:10:47.754Z,102516.78
2019-02-25T22:13:21.087Z,102520.81
2019-02-25T22:15:53.219Z,102514.97
2019-02-25T22:18:26.159Z,102520.02
2019-02-25T22:20:58.704Z,102528.09
2019-02-25T22:23:32.753Z,102533.59
2019-02-25T22:26:04.229Z,102527.28
2019-02-25T22:28:38.810Z,102534.27
2019-02-25T22:31:10.901Z,102535.47
2019-02-25T22:33:43.322Z,102537.66
2019-02-25T22:36:15.127Z,102534.73
2019-02-25T22:38:48.112Z,102546.06
2019-02-25T22:41:20.569Z,102544.05
2019-02-25T22:43:53.595Z,102539.04
2019-02-25T22:46:28.177Z,102539.09
2019-02-25T22:49:00.859Z,102538.44
2019-02-25T22:51:33.212Z,102536.71
2019-02-25T22:54:08.620Z,102542.89
2019-02-25T22:56:39.667Z,102546.52
2019-02-25T22:59:11.643Z,102540.54
2019-02-25T23:01:43.739Z,102537.20
2019-02-25T23:04:17.424Z,102537.19
2019-02-25T23:06:51.268Z,102536.44
2019-02-25T23:09:24.079Z,102535.04
2019-02-25T23:11:56.808Z,102541.67
2019-02-25T23:14:28.598Z,102540.37
2019-02-25T23:17:04.597Z,102368.31
2019-02-25T23:19:34.889Z,102535.22
2019-02-25T23:22:07.500Z,102532.81
2019-02-25T23:24:41.477Z,102528.47
2019-02-25T23:27:13.041Z,102529.24
2019-02-25T23:29:47.740Z,102538.36
2019-02-25T23:32:18.513Z,102533.35
2019-02-25T23:34:52.616Z,102527.11
2019-02-25T23:37:25.695Z,102519.55
2019-02-25T23:40:00.040Z,102518.74
2019-02-25T23:42:33.104Z,102522.51
2019-02-25T23:45:05.021Z,102517.55
2019-02-25T23:47:37.773Z,102507.23
2019-02-25T23:50:11.548Z,102502.47
2019-02-25T23:52:44.093Z,102498.77
2019-02-25T23:55:18.647Z,102490.48
2019-02-25T23:57:49.766Z,102499.00
